createdAt,value
2018-07-20T00:02:08.739Z,86.48
2018-07-20T00:04:35.061Z,86.56
2018-07-20T00:07:01.376Z,87.05
2018-07-20T00:09:27.697Z,86.90
2018-07-20T00:11:54.009Z,87.01
2018-07-20T00:14:20.320Z,86.97
2018-07-20T00:16:46.667Z,86.87
2018-07-20T00:19:12.947Z,86.84
2018-07-20T00:21:39.265Z,86.75
2018-07-20T00:24:05.608Z,86.84
2018-07-20T00:26:31.967Z,86.76
2018-07-20T00:28:58.280Z,86.94
2018-07-20T00:31:24.640Z,86.91
2018-07-20T00:33:50.977Z,87.03
2018-07-20T00:36:17.297Z,87.09
2018-07-20T00:38:43.612Z,86.80
2018-07-20T00:41:09.936Z,86.86
2018-07-20T00:43:36.252Z,86.72
2018-07-20T00:46:02.566Z,86.75
2018-07-20T00:48:28.879Z,86.55
2018-07-20T00:50:55.196Z,86.49
2018-07-20T00:53:21.507Z,86.34
2018-07-20T00:55:47.825Z,86.24
2018-07-20T00:58:14.141Z,86.11
2018-07-20T01:00:40.458Z,85.88
2018-07-20T01:03:06.793Z,85.84
2018-07-20T01:05:33.260Z,85.69
2018-07-20T01:07:59.473Z,85.55
2018-07-20T01:10:25.908Z,85.43
2018-07-20T01:12:52.198Z,85.18
2018-07-20T01:15:18.532Z,85.06
2018-07-20T01:17:44.848Z,85.10
2018-07-20T01:20:11.170Z,85.12
2018-07-20T01:22:37.482Z,84.99
2018-07-20T01:25:03.799Z,84.94
2018-07-20T01:27:30.108Z,85.01
2018-07-20T01:29:56.467Z,84.94
2018-07-20T01:32:22.776Z,84.99
2018-07-20T01:34:49.093Z,85.08
2018-07-20T01:37:15.425Z,85.12
2018-07-20T01:39:41.738Z,85.06
2018-07-20T01:42:08.056Z,85.12
2018-07-20T01:44:34.389Z,85.08
2018-07-20T01:47:00.762Z,85.28
2018-07-20T01:49:27.072Z,85.32
2018-07-20T01:51:53.384Z,85.36
2018-07-20T01:54:19.699Z,85.36
2018-07-20T01:56:46.019Z,85.32
2018-07-20T01:59:12.329Z,85.47
2018-07-20T02:01:38.650Z,85.39
2018-07-20T02:04:04.965Z,85.50
2018-07-20T02:06:31.284Z,85.48
2018-07-20T02:08:57.600Z,85.57
2018-07-20T02:11:23.923Z,85.38
2018-07-20T02:13:50.284Z,85.41
2018-07-20T02:16:16.598Z,85.09
2018-07-20T02:18:42.914Z,84.88
2018-07-20T02:21:09.244Z,84.97
2018-07-20T02:23:35.570Z,84.89
2018-07-20T02:26:01.887Z,84.94
2018-07-20T02:28:28.204Z,84.99
2018-07-20T02:30:54.529Z,84.99
2018-07-20T02:33:20.842Z,84.96
2018-07-20T02:35:47.203Z,85.01
2018-07-20T02:38:13.514Z,85.10
2018-07-20T02:40:39.840Z,85.12
2018-07-20T02:43:06.155Z,85.10
2018-07-20T02:45:32.514Z,85.15
2018-07-20T02:47:58.830Z,85.22
2018-07-20T02:50:25.140Z,85.43
2018-07-20T02:52:51.450Z,85.37
2018-07-20T02:55:17.773Z,85.41
2018-07-20T02:57:44.091Z,85.35
2018-07-20T03:00:10.447Z,85.29
2018-07-20T03:02:36.805Z,85.38
2018-07-20T03:05:03.130Z,85.25
2018-07-20T03:07:29.447Z,85.37
2018-07-20T03:09:55.762Z,85.69
2018-07-20T03:12:22.173Z,86.03
2018-07-20T03:14:48.496Z,86.32
2018-07-20T03:17:14.818Z,86.38
2018-07-20T03:19:41.138Z,86.59
2018-07-20T03:22:07.451Z,86.77
2018-07-20T03:24:33.769Z,86.96
2018-07-20T03:27:00.084Z,86.94
2018-07-20T03:29:26.397Z,87.03
2018-07-20T03:31:52.714Z,87.07
2018-07-20T03:34:19.030Z,87.01
2018-07-20T03:36:45.373Z,87.00
2018-07-20T03:39:11.737Z,86.94
2018-07-20T03:41:38.057Z,86.88
2018-07-20T03:44:04.366Z,86.76
2018-07-20T03:46:30.689Z,86.70
2018-07-20T03:48:57.043Z,86.69
2018-07-20T03:51:23.318Z,86.61
2018-07-20T03:53:49.636Z,86.46
2018-07-20T03:56:15.995Z,86.17
2018-07-20T03:58:42.312Z,86.00
2018-07-20T04:01:08.629Z,85.99
2018-07-20T04:03:34.932Z,85.64
2018-07-20T04:06:01.245Z,85.47
2018-07-20T04:08:27.551Z,85.32
2018-07-20T04:10:53.864Z,85.36
2018-07-20T04:13:20.178Z,85.11
2018-07-20T04:15:46.489Z,85.03
2018-07-20T04:18:12.800Z,84.90
2018-07-20T04:20:39.114Z,84.43
2018-07-20T04:23:05.429Z,84.49
2018-07-20T04:25:31.744Z,84.47
2018-07-20T04:27:58.063Z,84.74
2018-07-20T04:30:24.381Z,83.87
2018-07-20T04:32:50.699Z,83.81
2018-07-20T04:35:17.019Z,83.74
2018-07-20T04:37:43.331Z,83.49
2018-07-20T04:40:09.654Z,83.48
2018-07-20T04:42:35.966Z,83.23
2018-07-20T04:45:02.287Z,83.25
2018-07-20T04:47:28.607Z,83.10
2018-07-20T04:49:54.972Z,82.79
2018-07-20T04:52:21.273Z,82.87
2018-07-20T04:54:47.616Z,82.60
2018-07-20T04:57:13.980Z,82.41
2018-07-20T04:59:40.297Z,81.95
2018-07-20T05:02:06.624Z,81.74
2018-07-20T05:04:32.939Z,81.35
2018-07-20T05:06:59.248Z,81.49
2018-07-20T05:09:25.561Z,81.04
2018-07-20T05:11:51.876Z,81.16
2018-07-20T05:14:18.196Z,81.45
2018-07-20T05:16:44.563Z,81.17
2018-07-20T05:19:10.877Z,81.24
2018-07-20T05:21:37.198Z,80.98
2018-07-20T05:24:03.519Z,80.91
2018-07-20T05:26:29.832Z,81.01
2018-07-20T05:28:56.152Z,81.23
2018-07-20T05:31:22.469Z,80.82
2018-07-20T05:33:48.784Z,80.41
2018-07-20T05:36:15.096Z,79.94
2018-07-20T05:38:41.409Z,79.14
2018-07-20T05:41:07.721Z,77.66
2018-07-20T05:43:34.038Z,73.94
2018-07-20T05:46:00.353Z,71.93
2018-07-20T05:48:26.664Z,71.53
2018-07-20T05:50:52.978Z,73.79
2018-07-20T05:53:19.323Z,74.87
2018-07-20T05:55:45.607Z,76.24
2018-07-20T05:58:11.925Z,76.29
2018-07-20T06:00:38.245Z,75.44
2018-07-20T06:03:04.610Z,76.24
2018-07-20T06:05:30.940Z,75.79
2018-07-20T06:07:57.232Z,75.74
2018-07-20T06:10:23.558Z,76.20
2018-07-20T06:12:49.872Z,76.29
2018-07-20T06:15:16.184Z,76.26
2018-07-20T06:17:42.498Z,76.30
2018-07-20T06:20:08.821Z,75.85
2018-07-20T06:22:35.128Z,75.67
2018-07-20T06:25:01.453Z,75.23
2018-07-20T06:27:27.761Z,75.13
2018-07-20T06:29:54.071Z,74.53
2018-07-20T06:32:20.382Z,74.77
2018-07-20T06:34:46.698Z,73.60
2018-07-20T06:37:13.015Z,73.10
2018-07-20T06:39:39.335Z,73.32
2018-07-20T06:42:05.652Z,72.94
2018-07-20T06:44:31.989Z,72.95
2018-07-20T06:46:58.307Z,72.43
2018-07-20T06:49:24.616Z,72.48
2018-07-20T06:51:50.939Z,72.37
2018-07-20T06:54:17.255Z,72.23
2018-07-20T06:56:43.601Z,71.90
2018-07-20T06:59:09.914Z,71.90
2018-07-20T07:01:36.235Z,71.96
2018-07-20T07:04:02.609Z,71.45
2018-07-20T07:06:28.927Z,71.28
2018-07-20T07:08:55.252Z,70.21
2018-07-20T07:11:21.566Z,70.11
2018-07-20T07:13:47.885Z,69.50
2018-07-20T07:16:14.215Z,69.11
2018-07-20T07:18:40.575Z,68.88
2018-07-20T07:21:06.924Z,67.87
2018-07-20T07:23:33.326Z,67.54
2018-07-20T07:25:59.652Z,69.01
2018-07-20T07:28:25.919Z,68.45
2018-07-20T07:30:52.228Z,68.89
2018-07-20T07:33:18.570Z,68.06
2018-07-20T07:35:44.914Z,68.21
2018-07-20T07:38:11.220Z,68.74
2018-07-20T07:40:37.540Z,67.68
2018-07-20T07:43:03.875Z,66.88
2018-07-20T07:45:30.190Z,65.42
2018-07-20T07:47:56.507Z,64.57
2018-07-20T07:50:22.834Z,64.33
2018-07-20T07:52:49.156Z,62.57
2018-07-20T07:55:15.473Z,60.87
2018-07-20T07:57:41.882Z,59.64
2018-07-20T08:00:08.188Z,58.41
2018-07-20T08:02:34.512Z,59.11
2018-07-20T08:05:00.836Z,56.26
2018-07-20T08:07:27.170Z,52.99
2018-07-20T08:09:53.548Z,52.90
2018-07-20T08:12:19.796Z,53.07
2018-07-20T08:14:46.122Z,53.14
2018-07-20T08:17:12.430Z,51.84
2018-07-20T08:19:38.740Z,50.45
2018-07-20T08:22:05.048Z,51.36
2018-07-20T08:24:31.364Z,53.86
2018-07-20T08:26:57.683Z,54.40
2018-07-20T08:29:24.064Z,54.06
2018-07-20T08:31:50.349Z,53.86
2018-07-20T08:34:16.668Z,55.48
2018-07-20T08:36:43.059Z,54.91
2018-07-20T08:39:09.368Z,55.61
2018-07-20T08:41:35.685Z,55.47
2018-07-20T08:44:01.996Z,56.26
2018-07-20T08:46:28.380Z,54.44
2018-07-20T08:48:54.626Z,53.11
2018-07-20T08:51:20.940Z,53.46
2018-07-20T08:53:47.253Z,54.52
2018-07-20T08:56:13.572Z,55.47
2018-07-20T08:58:39.888Z,55.77
2018-07-20T09:01:06.221Z,54.79
2018-07-20T09:03:32.564Z,55.83
2018-07-20T09:05:58.852Z,55.82
2018-07-20T09:08:25.177Z,55.47
2018-07-20T09:10:51.488Z,53.29
2018-07-20T09:13:17.799Z,55.22
2018-07-20T09:15:44.117Z,51.61
2018-07-20T09:18:10.424Z,50.98
2018-07-20T09:20:36.849Z,49.83
2018-07-20T09:23:03.050Z,51.42
2018-07-20T09:25:29.376Z,52.63
2018-07-20T09:27:55.719Z,53.73
2018-07-20T09:30:22.001Z,54.34
2018-07-20T09:32:48.312Z,54.70
2018-07-20T09:35:14.620Z,52.88
2018-07-20T09:37:40.935Z,50.82
2018-07-20T09:40:07.245Z,49.27
2018-07-20T09:42:33.559Z,48.30
2018-07-20T09:44:59.868Z,52.39
2018-07-20T09:47:26.224Z,53.55
2018-07-20T09:49:52.531Z,50.88
2018-07-20T09:52:18.849Z,51.31
2018-07-20T09:54:45.189Z,52.56
2018-07-20T09:57:11.499Z,53.78
2018-07-20T09:59:37.847Z,53.44
2018-07-20T10:02:04.122Z,54.11
2018-07-20T10:04:30.431Z,54.95
2018-07-20T10:06:56.740Z,50.90
2018-07-20T10:09:23.053Z,49.02
2018-07-20T10:11:49.364Z,47.97
2018-07-20T10:14:15.679Z,45.00
2018-07-20T10:16:41.989Z,47.74
2018-07-20T10:19:08.351Z,50.25
2018-07-20T10:21:34.623Z,50.85
2018-07-20T10:24:00.931Z,47.43
2018-07-20T10:26:27.246Z,47.50
2018-07-20T10:28:53.555Z,47.82
2018-07-20T10:31:19.886Z,46.91
2018-07-20T10:33:46.231Z,48.32
2018-07-20T10:36:12.558Z,49.89
2018-07-20T10:38:38.863Z,50.36
2018-07-20T10:41:05.176Z,48.70
2018-07-20T10:43:31.485Z,47.92
2018-07-20T10:45:57.790Z,48.65
2018-07-20T10:48:24.103Z,50.55
2018-07-20T10:50:50.423Z,51.51
2018-07-20T10:53:16.735Z,52.29
2018-07-20T10:55:43.085Z,54.31
2018-07-20T10:58:09.436Z,55.21
2018-07-20T11:00:35.755Z,54.36
2018-07-20T11:03:02.070Z,51.58
2018-07-20T11:05:28.443Z,49.44
2018-07-20T11:07:54.769Z,48.64
2018-07-20T11:10:21.075Z,47.90
2018-07-20T11:12:47.399Z,48.10
2018-07-20T11:15:13.703Z,48.49
2018-07-20T11:17:40.064Z,49.79
2018-07-20T11:20:06.375Z,51.72
2018-07-20T11:22:32.684Z,51.20
2018-07-20T11:24:58.996Z,51.33
2018-07-20T11:27:25.315Z,50.00
2018-07-20T11:29:51.631Z,49.27
2018-07-20T11:32:17.944Z,47.91
2018-07-20T11:34:44.281Z,48.74
2018-07-20T11:37:10.575Z,48.20
2018-07-20T11:39:36.887Z,48.22
2018-07-20T11:42:03.206Z,46.84
2018-07-20T11:44:29.522Z,47.03
2018-07-20T11:46:55.847Z,47.41
2018-07-20T11:49:22.182Z,47.40
2018-07-20T11:51:48.513Z,48.39
2018-07-20T11:54:14.823Z,48.91
2018-07-20T11:56:41.149Z,48.31
2018-07-20T11:59:07.471Z,48.87
2018-07-20T12:01:33.830Z,47.84
2018-07-20T12:04:00.140Z,48.61
2018-07-20T12:06:26.457Z,47.65
2018-07-20T12:08:52.779Z,48.32
2018-07-20T12:11:19.094Z,48.27
2018-07-20T12:13:45.425Z,48.12
2018-07-20T12:16:11.743Z,48.10
2018-07-20T12:18:38.065Z,48.88
2018-07-20T12:21:04.381Z,49.48
2018-07-20T12:23:30.697Z,50.71
2018-07-20T12:25:57.020Z,49.87
2018-07-20T12:28:23.327Z,49.67
2018-07-20T12:30:49.650Z,49.42
2018-07-20T12:33:15.970Z,48.96
2018-07-20T12:35:42.287Z,48.56
2018-07-20T12:38:08.595Z,48.47
2018-07-20T12:40:34.909Z,49.23
2018-07-20T12:43:01.233Z,49.27
2018-07-20T12:45:27.555Z,48.26
2018-07-20T12:47:53.868Z,48.75
2018-07-20T12:50:20.212Z,49.56
2018-07-20T12:52:46.505Z,48.37
2018-07-20T12:55:12.825Z,49.35
2018-07-20T12:57:39.139Z,49.61
2018-07-20T13:00:05.496Z,49.61
2018-07-20T13:02:31.808Z,49.92
2018-07-20T13:04:58.118Z,49.94
2018-07-20T13:07:24.427Z,50.01
2018-07-20T13:09:50.737Z,50.61
2018-07-20T13:12:17.062Z,51.10
2018-07-20T13:14:43.365Z,49.88
2018-07-20T13:17:09.690Z,49.56
2018-07-20T13:19:36.018Z,49.04
2018-07-20T13:22:02.345Z,48.33
2018-07-20T13:24:28.655Z,49.20
2018-07-20T13:26:54.974Z,49.40
2018-07-20T13:29:21.297Z,49.74
2018-07-20T13:31:47.607Z,49.16
2018-07-20T13:34:13.915Z,47.78
2018-07-20T13:36:40.224Z,44.98
2018-07-20T13:39:06.535Z,44.50
2018-07-20T13:41:32.884Z,47.17
2018-07-20T13:43:59.198Z,50.04
2018-07-20T13:46:25.519Z,51.06
2018-07-20T13:48:51.868Z,51.49
2018-07-20T13:51:18.181Z,51.61
2018-07-20T13:53:44.494Z,52.33
2018-07-20T13:56:10.807Z,52.03
2018-07-20T13:58:37.117Z,51.98
2018-07-20T14:01:03.435Z,51.50
2018-07-20T14:03:29.749Z,51.83
2018-07-20T14:05:56.065Z,52.04
2018-07-20T14:08:22.382Z,51.72
2018-07-20T14:10:48.703Z,52.42
2018-07-20T14:13:15.015Z,52.16
2018-07-20T14:15:41.334Z,51.95
2018-07-20T14:18:07.654Z,51.81
2018-07-20T14:20:33.958Z,51.91
2018-07-20T14:23:00.284Z,52.00
2018-07-20T14:25:26.595Z,52.86
2018-07-20T14:27:52.909Z,53.58
2018-07-20T14:30:19.218Z,54.10
2018-07-20T14:32:45.576Z,54.08
2018-07-20T14:35:11.898Z,54.22
2018-07-20T14:37:38.213Z,54.71
2018-07-20T14:40:04.556Z,54.45
2018-07-20T14:42:30.846Z,54.56
2018-07-20T14:44:57.165Z,54.70
2018-07-20T14:47:23.491Z,54.91
2018-07-20T14:49:49.813Z,55.44
2018-07-20T14:52:16.153Z,55.77
2018-07-20T14:54:42.499Z,55.14
2018-07-20T14:57:08.808Z,54.91
2018-07-20T14:59:35.125Z,55.25
2018-07-20T15:02:01.451Z,55.29
2018-07-20T15:04:27.760Z,55.34
2018-07-20T15:06:54.086Z,55.26
2018-07-20T15:09:20.379Z,55.37
2018-07-20T15:11:46.690Z,55.75
2018-07-20T15:14:13.002Z,55.53
2018-07-20T15:16:39.381Z,55.49
2018-07-20T15:19:05.690Z,55.29
2018-07-20T15:21:32.009Z,55.55
2018-07-20T15:23:58.319Z,55.63
2018-07-20T15:26:24.644Z,55.47
2018-07-20T15:28:50.955Z,55.44
2018-07-20T15:31:17.321Z,55.15
2018-07-20T15:33:43.639Z,55.23
2018-07-20T15:36:09.908Z,55.51
2018-07-20T15:38:36.223Z,55.74
2018-07-20T15:41:02.577Z,56.06
2018-07-20T15:43:28.886Z,55.78
2018-07-20T15:46:05.769Z,55.84
2018-07-20T15:48:21.627Z,55.24
2018-07-20T15:50:47.934Z,55.44
2018-07-20T15:53:40.779Z,55.44
2018-07-20T15:55:40.561Z,54.21
2018-07-20T15:58:06.889Z,54.57
2018-07-20T16:00:33.201Z,54.69
2018-07-20T16:02:59.516Z,54.71
2018-07-20T16:05:25.835Z,55.36
2018-07-20T16:07:52.157Z,55.06
2018-07-20T16:10:18.467Z,55.70
2018-07-20T16:12:44.818Z,55.41
2018-07-20T16:15:11.146Z,55.29
2018-07-20T16:17:37.468Z,54.83
2018-07-20T16:20:03.804Z,54.78
2018-07-20T16:22:30.129Z,54.91
2018-07-20T16:24:56.499Z,54.14
2018-07-20T16:27:22.841Z,54.92
2018-07-20T16:29:49.174Z,54.81
2018-07-20T16:32:15.502Z,54.75
2018-07-20T16:34:41.821Z,54.84
2018-07-20T16:37:08.151Z,54.73
2018-07-20T16:39:34.464Z,54.81
2018-07-20T16:42:00.812Z,54.68
2018-07-20T16:44:27.124Z,54.90
2018-07-20T16:46:53.442Z,55.18
2018-07-20T16:49:19.749Z,55.24
2018-07-20T16:51:46.060Z,55.09
2018-07-20T16:54:12.375Z,55.24
2018-07-20T16:56:38.686Z,55.43
2018-07-20T16:59:05.042Z,55.54
2018-07-20T17:01:31.317Z,55.40
2018-07-20T17:03:57.672Z,55.78
2018-07-20T17:06:23.999Z,55.87
2018-07-20T17:08:50.352Z,56.04
2018-07-20T17:11:16.707Z,56.15
2018-07-20T17:13:43.021Z,56.36
2018-07-20T17:16:09.331Z,56.42
2018-07-20T17:18:35.651Z,56.46
2018-07-20T17:21:01.971Z,56.48
2018-07-20T17:23:28.283Z,56.68
2018-07-20T17:25:54.602Z,56.98
2018-07-20T17:28:20.919Z,57.01
2018-07-20T17:30:47.236Z,57.26
2018-07-20T17:33:13.552Z,57.33
2018-07-20T17:35:39.943Z,57.38
2018-07-20T17:38:06.260Z,57.36
2018-07-20T17:40:32.599Z,57.62
2018-07-20T17:42:58.916Z,57.81
2018-07-20T17:45:25.234Z,57.96
2018-07-20T17:47:51.543Z,58.16
2018-07-20T17:50:17.903Z,58.42
2018-07-20T17:52:44.218Z,58.79
2018-07-20T17:55:10.535Z,58.93
2018-07-20T17:57:36.852Z,59.18
2018-07-20T18:00:04.811Z,59.32
2018-07-20T18:02:31.123Z,59.34
2018-07-20T18:04:57.451Z,59.50
2018-07-20T18:07:23.768Z,59.73
2018-07-20T18:09:50.099Z,59.91
2018-07-20T18:12:16.427Z,60.25
2018-07-20T18:14:42.739Z,60.70
2018-07-20T18:17:09.067Z,60.94
2018-07-20T18:19:35.384Z,61.02
2018-07-20T18:22:01.752Z,61.11
2018-07-20T18:24:28.063Z,61.10
2018-07-20T18:26:54.482Z,61.25
2018-07-20T18:29:20.742Z,61.14
2018-07-20T18:31:47.060Z,61.45
2018-07-20T18:34:13.416Z,61.66
2018-07-20T18:36:39.736Z,61.77
2018-07-20T18:39:06.049Z,62.03
2018-07-20T18:41:32.421Z,62.13
2018-07-20T18:43:58.744Z,62.30
2018-07-20T18:46:25.067Z,62.35
2018-07-20T18:48:51.379Z,62.42
2018-07-20T18:51:17.710Z,62.34
2018-07-20T18:53:44.025Z,62.51
2018-07-20T18:56:10.345Z,62.57
2018-07-20T18:58:36.650Z,62.71
2018-07-20T19:01:02.991Z,62.68
2018-07-20T19:03:29.298Z,62.64
2018-07-20T19:05:55.614Z,62.77
2018-07-20T19:08:21.927Z,62.88
2018-07-20T19:10:48.256Z,62.74
2018-07-20T19:13:14.567Z,63.09
2018-07-20T19:15:40.886Z,63.05
2018-07-20T19:18:07.214Z,63.30
2018-07-20T19:20:33.537Z,63.28
2018-07-20T19:22:59.909Z,63.34
2018-07-20T19:25:26.219Z,63.23
2018-07-20T19:27:52.533Z,63.45
2018-07-20T19:30:18.866Z,63.16
2018-07-20T19:32:45.201Z,63.11
2018-07-20T19:35:11.499Z,62.99
2018-07-20T19:37:37.808Z,63.08
2018-07-20T19:40:04.122Z,62.81
2018-07-20T19:42:30.484Z,62.81
2018-07-20T19:44:56.800Z,62.84
2018-07-20T19:47:23.107Z,62.83
2018-07-20T19:49:49.433Z,62.87
2018-07-20T19:52:15.732Z,63.06
2018-07-20T19:54:42.062Z,62.95
2018-07-20T19:57:08.374Z,62.98
2018-07-20T19:59:34.680Z,62.88
2018-07-20T20:02:01.016Z,62.91
2018-07-20T20:04:27.331Z,62.89
2018-07-20T20:06:53.694Z,62.97
2018-07-20T20:09:20.007Z,62.80
2018-07-20T20:11:46.338Z,62.97
2018-07-20T20:14:12.688Z,62.83
2018-07-20T20:16:39.024Z,62.88
2018-07-20T20:19:05.357Z,62.40
2018-07-20T20:21:31.727Z,62.51
2018-07-20T20:23:58.035Z,62.54
2018-07-20T20:26:24.361Z,62.36
2018-07-20T20:28:50.700Z,62.12
2018-07-20T20:31:17.013Z,62.04
2018-07-20T20:33:43.328Z,62.12
2018-07-20T20:36:11.964Z,62.18
2018-07-20T20:38:38.296Z,62.23
2018-07-20T20:41:04.623Z,62.27
2018-07-20T20:43:30.950Z,62.22
2018-07-20T20:45:57.295Z,62.19
2018-07-20T20:48:23.614Z,62.33
2018-07-20T20:50:49.985Z,62.25
2018-07-20T20:53:16.312Z,62.30
2018-07-20T20:55:42.624Z,62.37
2018-07-20T20:58:08.970Z,62.40
2018-07-20T21:00:35.319Z,62.63
2018-07-20T21:03:01.650Z,62.48
2018-07-20T21:05:27.966Z,62.64
2018-07-20T21:07:54.434Z,62.84
2018-07-20T21:10:20.746Z,62.79
2018-07-20T21:12:47.131Z,63.01
2018-07-20T21:15:13.445Z,62.82
2018-07-20T21:17:39.759Z,62.81
2018-07-20T21:20:06.083Z,62.92
2018-07-20T21:22:32.431Z,63.18
2018-07-20T21:24:58.791Z,63.14
2018-07-20T21:27:25.102Z,63.44
2018-07-20T21:29:51.457Z,63.20
2018-07-20T21:32:17.774Z,63.30
2018-07-20T21:34:44.099Z,63.48
2018-07-20T21:37:10.408Z,63.35
2018-07-20T21:39:36.730Z,63.42
2018-07-20T21:42:03.043Z,63.73
2018-07-20T21:44:29.363Z,63.65
2018-07-20T21:46:55.682Z,63.69
2018-07-20T21:49:22.006Z,63.86
2018-07-20T21:51:48.321Z,63.62
2018-07-20T21:54:14.628Z,63.49
2018-07-20T21:56:40.976Z,63.35
2018-07-20T21:59:07.291Z,63.41
2018-07-20T22:01:33.606Z,63.41
2018-07-20T22:03:59.916Z,63.36
2018-07-20T22:06:26.234Z,63.29
2018-07-20T22:08:52.568Z,63.30
2018-07-20T22:11:18.885Z,63.05
2018-07-20T22:13:45.251Z,63.16
2018-07-20T22:16:11.567Z,62.91
2018-07-20T22:18:37.885Z,63.03
2018-07-20T22:21:04.199Z,62.75
2018-07-20T22:23:30.503Z,62.61
2018-07-20T22:25:56.811Z,63.07
2018-07-20T22:28:23.119Z,62.83
2018-07-20T22:30:49.447Z,62.75
2018-07-20T22:33:15.761Z,63.07
2018-07-20T22:35:42.076Z,62.72
2018-07-20T22:38:08.388Z,62.62
2018-07-20T22:40:34.695Z,62.74
2018-07-20T22:43:01.009Z,62.67
2018-07-20T22:45:27.322Z,62.82
2018-07-20T22:47:53.630Z,63.21
2018-07-20T22:50:19.944Z,63.10
2018-07-20T22:52:46.253Z,63.26
2018-07-20T22:55:12.576Z,63.53
2018-07-20T22:57:38.887Z,63.13
2018-07-20T23:00:05.327Z,63.03
2018-07-20T23:02:31.636Z,62.98
2018-07-20T23:04:57.943Z,62.98
2018-07-20T23:07:24.251Z,62.99
2018-07-20T23:09:50.562Z,63.17
2018-07-20T23:12:16.932Z,63.25
2018-07-20T23:14:43.249Z,63.37
2018-07-20T23:17:09.556Z,63.11
2018-07-20T23:19:35.879Z,63.17
2018-07-20T23:22:02.237Z,63.40
2018-07-20T23:24:28.554Z,63.38
2018-07-20T23:26:54.871Z,63.34
2018-07-20T23:29:21.243Z,63.71
2018-07-20T23:31:47.514Z,63.34
2018-07-20T23:34:13.825Z,63.55
2018-07-20T23:36:40.143Z,63.63
2018-07-20T23:39:06.499Z,63.37
2018-07-20T23:41:35.746Z,63.70
2018-07-20T23:44:03.081Z,63.62
2018-07-20T23:46:29.567Z,63.46
2018-07-20T23:48:56.133Z,63.61
2018-07-20T23:51:22.467Z,63.49
2018-07-20T23:53:48.786Z,63.34
2018-07-20T23:56:15.113Z,63.47
2018-07-20T23:58:41.440Z,63.67
